createdAt,value
2018-10-06T00:02:57.026Z,15.23
2018-10-06T00:08:01.897Z,20.23
2018-10-06T00:13:06.839Z,13.67
2018-10-06T00:18:11.848Z,14.07
2018-10-06T00:23:17.165Z,16.93
2018-10-06T00:28:22.101Z,14.87
2018-10-06T00:33:27.001Z,19.90
2018-10-06T00:38:32.055Z,14.57
2018-10-06T00:43:36.948Z,16.97
2018-10-06T00:48:41.946Z,13.57
2018-10-06T00:53:46.984Z,11.80
2018-10-06T00:58:51.981Z,13.23
2018-10-06T01:03:56.833Z,17.77
2018-10-06T01:09:01.798Z,15.30
2018-10-06T01:14:06.813Z,17.67
2018-10-06T01:19:11.666Z,20.73
2018-10-06T01:24:16.660Z,15.73
2018-10-06T01:29:21.599Z,18.80
2018-10-06T01:34:26.492Z,14.27
2018-10-06T01:39:32.007Z,15.30
2018-10-06T01:44:36.886Z,15.10
2018-10-06T01:49:42.002Z,19.33
2018-10-06T01:54:47.069Z,14.50
2018-10-06T01:59:51.993Z,19.90
2018-10-06T02:04:56.887Z,15.73
2018-10-06T02:10:01.868Z,18.40
2018-10-06T02:15:06.946Z,15.50
2018-10-06T02:20:11.833Z,15.53
2018-10-06T02:25:16.808Z,22.40
2018-10-06T02:30:21.736Z,18.50
2018-10-06T02:35:26.754Z,19.63
2018-10-06T02:40:31.678Z,21.20
2018-10-06T02:45:43.264Z,20.47
2018-10-06T02:50:48.392Z,18.67
2018-10-06T02:55:53.379Z,21.60
2018-10-06T03:01:04.726Z,16.23
2018-10-06T03:06:10.225Z,15.77
2018-10-06T03:11:15.162Z,19.77
2018-10-06T03:16:20.117Z,16.10
2018-10-06T03:21:24.965Z,16.07
2018-10-06T03:26:29.922Z,16.47
2018-10-06T03:31:34.832Z,20.20
2018-10-06T03:36:39.848Z,15.47
2018-10-06T03:41:46.159Z,18.73
2018-10-06T03:46:51.196Z,19.70
2018-10-06T03:51:56.153Z,19.47
2018-10-06T03:57:00.974Z,17.13
2018-10-06T04:02:06.050Z,16.20
2018-10-06T04:07:11.318Z,17.97
2018-10-06T04:12:16.729Z,13.03
2018-10-06T04:17:21.603Z,16.23
2018-10-06T04:22:26.646Z,16.57
2018-10-06T04:27:31.782Z,17.50
2018-10-06T04:32:36.794Z,23.20
2018-10-06T04:37:41.944Z,17.73
2018-10-06T04:42:46.812Z,18.07
2018-10-06T04:47:51.879Z,15.83
2018-10-06T04:52:56.898Z,17.17
2018-10-06T04:58:01.802Z,19.33
2018-10-06T05:03:06.949Z,20.50
2018-10-06T05:08:12.076Z,22.37
2018-10-06T05:13:17.120Z,23.47
2018-10-06T05:18:22.014Z,18.93
2018-10-06T05:23:26.939Z,19.27
2018-10-06T05:28:32.278Z,18.00
2018-10-06T05:33:37.141Z,20.00
2018-10-06T05:38:42.146Z,18.00
2018-10-06T05:43:47.034Z,22.20
2018-10-06T05:48:52.017Z,17.50
2018-10-06T05:53:57.135Z,20.57
2018-10-06T05:59:02.947Z,16.40
2018-10-06T06:04:07.946Z,16.37
2018-10-06T06:09:13.173Z,23.07
2018-10-06T06:14:18.071Z,20.53
2018-10-06T06:19:22.897Z,23.77
2018-10-06T06:24:28.167Z,24.73
2018-10-06T06:29:33.442Z,21.53
2018-10-06T06:34:38.317Z,24.97
2018-10-06T06:39:43.741Z,23.10
2018-10-06T06:44:48.869Z,21.23
2018-10-06T06:49:53.959Z,24.97
2018-10-06T06:54:58.915Z,32.63
2018-10-06T07:00:04.001Z,29.60
2018-10-06T07:05:08.929Z,27.57
2018-10-06T07:10:14.317Z,20.27
2018-10-06T07:15:19.357Z,22.23
2018-10-06T07:20:24.549Z,22.00
2018-10-06T07:25:30.550Z,23.90
2018-10-06T07:30:35.745Z,21.43
2018-10-06T07:35:41.065Z,17.03
2018-10-06T07:40:46.169Z,26.87
2018-10-06T07:45:51.184Z,16.13
2018-10-06T07:50:56.054Z,20.83
2018-10-06T07:56:01.481Z,22.70
2018-10-06T08:01:06.557Z,17.53
2018-10-06T08:06:11.796Z,16.20
2018-10-06T08:11:17.061Z,16.67
2018-10-06T08:16:22.211Z,16.90
2018-10-06T08:21:27.496Z,21.57
2018-10-06T08:26:32.607Z,14.33
2018-10-06T08:31:37.709Z,12.17
2018-10-06T08:36:43.049Z,13.20
2018-10-06T08:41:48.228Z,17.70
2018-10-06T08:46:53.116Z,14.47
2018-10-06T08:51:58.179Z,13.67
2018-10-06T08:57:03.285Z,14.70
2018-10-06T09:02:08.609Z,13.63
2018-10-06T09:07:13.814Z,16.87
2018-10-06T09:12:18.813Z,14.07
2018-10-06T09:17:23.972Z,12.67
2018-10-06T09:22:29.051Z,12.47
2018-10-06T09:27:34.667Z,11.23
2018-10-06T09:32:39.803Z,16.07
2018-10-06T09:37:44.788Z,12.87
2018-10-06T09:42:49.778Z,16.63
2018-10-06T09:47:55.198Z,16.37
2018-10-06T09:53:01.030Z,13.27
2018-10-06T09:58:06.187Z,18.60
2018-10-06T10:03:16.562Z,14.47
2018-10-06T10:08:21.801Z,11.33
2018-10-06T10:13:26.686Z,15.33
2018-10-06T10:18:33.420Z,16.07
2018-10-06T10:23:38.675Z,13.33
2018-10-06T10:28:44.191Z,19.50
2018-10-06T10:33:49.330Z,17.90
2018-10-06T10:38:54.514Z,14.83
2018-10-06T10:43:59.777Z,17.07
2018-10-06T10:49:04.711Z,16.77
2018-10-06T10:54:10.323Z,13.77
2018-10-06T10:59:15.209Z,13.37
2018-10-06T11:04:20.225Z,17.77
2018-10-06T11:09:25.299Z,11.23
2018-10-06T11:14:30.161Z,12.10
2018-10-06T11:19:35.090Z,8.77
2018-10-06T11:24:40.535Z,9.50
2018-10-06T11:29:45.682Z,13.43
2018-10-06T11:34:50.786Z,10.93
2018-10-06T11:39:55.885Z,7.13
2018-10-06T11:45:01.018Z,9.17
2018-10-06T11:50:06.433Z,10.50
2018-10-06T11:55:12.205Z,12.07
2018-10-06T12:00:17.443Z,20.87
2018-10-06T12:05:22.458Z,12.53
2018-10-06T12:10:27.591Z,11.70
2018-10-06T12:15:32.950Z,16.00
2018-10-06T12:20:38.515Z,22.50
2018-10-06T12:25:50.084Z,12.07
2018-10-06T12:30:55.325Z,15.27
2018-10-06T12:36:00.556Z,10.23
2018-10-06T12:41:05.662Z,11.00
2018-10-06T12:46:10.944Z,12.00
2018-10-06T12:51:16.240Z,9.30
2018-10-06T12:56:21.406Z,8.67
2018-10-06T13:01:26.402Z,12.77
2018-10-06T13:06:31.486Z,9.63
2018-10-06T13:11:36.470Z,9.33
2018-10-06T13:16:41.698Z,8.13
2018-10-06T13:21:46.780Z,6.00
2018-10-06T13:26:51.929Z,5.80
2018-10-06T13:31:56.888Z,7.60
2018-10-06T13:37:01.985Z,6.63
2018-10-06T13:42:07.083Z,10.27
2018-10-06T13:47:12.203Z,6.00
2018-10-06T13:52:17.476Z,13.50
2018-10-06T13:57:22.674Z,4.93
2018-10-06T14:02:27.985Z,9.97
2018-10-06T14:07:33.249Z,8.53
2018-10-06T14:12:38.619Z,5.33
2018-10-06T14:17:44.953Z,7.50
2018-10-06T14:22:49.991Z,5.63
2018-10-06T14:27:55.043Z,8.77
2018-10-06T14:33:00.037Z,16.87
2018-10-06T14:38:05.300Z,6.53
2018-10-06T14:43:10.389Z,6.50
2018-10-06T14:48:15.392Z,8.20
2018-10-06T14:53:20.335Z,7.00
2018-10-06T14:58:25.512Z,5.33
2018-10-06T15:03:30.808Z,6.55
2018-10-06T15:08:36.126Z,7.60
2018-10-06T15:13:41.127Z,11.88
2018-10-06T15:18:46.262Z,8.57
2018-10-06T15:23:51.174Z,7.40
2018-10-06T15:28:56.185Z,11.67
2018-10-06T15:34:01.303Z,8.27
2018-10-06T15:39:08.203Z,9.50
2018-10-06T15:44:13.240Z,14.53
2018-10-06T15:49:18.371Z,9.80
2018-10-06T15:54:23.414Z,11.00
2018-10-06T15:59:28.288Z,12.83
2018-10-06T16:04:33.616Z,13.20
2018-10-06T16:09:38.468Z,10.27
2018-10-06T16:14:43.457Z,8.27
2018-10-06T16:19:48.878Z,10.07
2018-10-06T16:24:54.297Z,8.53
2018-10-06T16:29:59.665Z,10.73
2018-10-06T16:35:04.868Z,8.70
2018-10-06T16:40:09.904Z,10.67
2018-10-06T16:45:15.097Z,19.97
2018-10-06T16:50:20.125Z,9.20
2018-10-06T16:55:25.045Z,8.13
2018-10-06T17:00:30.098Z,13.50
2018-10-06T17:05:35.075Z,14.93
2018-10-06T17:10:39.954Z,11.93
2018-10-06T17:15:45.019Z,12.30
2018-10-06T17:20:49.926Z,11.43
2018-10-06T17:25:55.094Z,13.33
2018-10-06T17:31:00.103Z,11.67
2018-10-06T17:36:05.212Z,9.80
2018-10-06T17:41:10.271Z,9.50
2018-10-06T17:46:15.808Z,11.53
2018-10-06T17:51:20.866Z,9.60
2018-10-06T17:56:26.095Z,16.87
2018-10-06T18:01:31.324Z,10.43
2018-10-06T18:06:36.385Z,15.83
2018-10-06T18:11:41.543Z,14.37
2018-10-06T18:16:47.305Z,16.37
2018-10-06T18:21:52.173Z,10.87
2018-10-06T18:26:57.335Z,11.23
2018-10-06T18:32:03.309Z,13.67
2018-10-06T18:37:08.412Z,11.47
2018-10-06T18:42:13.530Z,12.50
2018-10-06T18:47:18.800Z,11.73
2018-10-06T18:52:24.119Z,8.93
2018-10-06T18:57:29.165Z,14.93
2018-10-06T19:02:34.381Z,11.17
2018-10-06T19:07:39.543Z,15.53
2018-10-06T19:12:44.801Z,12.00
2018-10-06T19:17:50.042Z,10.33
2018-10-06T19:22:54.969Z,10.03
2018-10-06T19:28:00.332Z,8.17
2018-10-06T19:33:05.988Z,18.70
2018-10-06T19:38:11.268Z,11.30
2018-10-06T19:43:16.301Z,9.97
2018-10-06T19:48:21.374Z,11.73
2018-10-06T19:53:26.378Z,10.00
2018-10-06T19:58:31.508Z,17.17
2018-10-06T20:03:36.527Z,16.17
2018-10-06T20:08:41.785Z,17.03
2018-10-06T20:13:47.221Z,18.70
2018-10-06T20:18:52.216Z,12.60
2018-10-06T20:23:57.171Z,15.97
2018-10-06T20:29:02.396Z,13.63
2018-10-06T20:34:07.474Z,9.63
2018-10-06T20:39:12.396Z,12.37
2018-10-06T20:44:18.171Z,22.90
2018-10-06T20:49:23.074Z,12.67
2018-10-06T20:54:28.137Z,12.13
2018-10-06T20:59:33.300Z,15.30
2018-10-06T21:04:38.400Z,15.87
2018-10-06T21:09:44.480Z,13.37
2018-10-06T21:14:49.539Z,11.93
2018-10-06T21:19:54.423Z,13.73
2018-10-06T21:24:59.561Z,11.23
2018-10-06T21:30:04.800Z,12.40
2018-10-06T21:35:09.934Z,14.97
2018-10-06T21:40:15.096Z,12.60
2018-10-06T21:45:20.263Z,15.40
2018-10-06T21:50:25.235Z,11.67
2018-10-06T21:55:30.132Z,13.73
2018-10-06T22:00:35.279Z,13.43
2018-10-06T22:05:40.358Z,11.17
2018-10-06T22:10:45.531Z,11.70
2018-10-06T22:15:50.738Z,11.20
2018-10-06T22:20:55.978Z,17.27
2018-10-06T22:26:01.390Z,11.67
2018-10-06T22:31:06.746Z,12.63
2018-10-06T22:36:11.832Z,12.47
2018-10-06T22:41:17.036Z,12.17
2018-10-06T22:46:22.145Z,14.37
2018-10-06T22:51:27.394Z,10.10
2018-10-06T22:56:32.612Z,13.57
2018-10-06T23:01:37.500Z,14.27
2018-10-06T23:06:42.553Z,16.07
2018-10-06T23:11:47.661Z,13.03
2018-10-06T23:16:52.581Z,9.07
2018-10-06T23:21:57.563Z,11.60
2018-10-06T23:27:02.515Z,12.43
2018-10-06T23:32:07.622Z,9.23
2018-10-06T23:37:12.762Z,10.17
2018-10-06T23:42:24.320Z,12.87
2018-10-06T23:47:29.450Z,12.53
2018-10-06T23:52:34.391Z,13.27
2018-10-06T23:57:39.298Z,15.63
